createdAt,value
2022-08-19T00:00:31.452Z,21.77
2022-08-19T00:01:30.414Z,21.76
2022-08-19T00:02:17.543Z,21.77
2022-08-19T00:03:05.011Z,21.74
2022-08-19T00:03:52.146Z,21.76
2022-08-19T00:04:39.205Z,21.73
2022-08-19T00:05:26.029Z,21.67
2022-08-19T00:06:13.364Z,21.68
2022-08-19T00:07:05.169Z,21.65
2022-08-19T00:07:52.097Z,21.64
2022-08-19T00:08:38.863Z,21.64
2022-08-19T00:09:30.247Z,21.63
2022-08-19T00:10:18.783Z,21.63
2022-08-19T00:11:06.029Z,21.57
2022-08-19T00:11:54.559Z,21.54
2022-08-19T00:12:46.777Z,21.53
2022-08-19T00:13:34.646Z,21.50
2022-08-19T00:14:21.887Z,21.47
2022-08-19T00:15:12.797Z,21.47
2022-08-19T00:16:00.827Z,21.45
2022-08-19T00:16:48.798Z,21.46
2022-08-19T00:17:35.577Z,21.43
2022-08-19T00:18:28.836Z,21.44
2022-08-19T00:19:16.907Z,21.44
2022-08-19T00:20:04.706Z,21.43
2022-08-19T00:20:51.466Z,21.36
2022-08-19T00:21:40.595Z,21.34
2022-08-19T00:22:29.445Z,21.30
2022-08-19T00:23:16.195Z,21.26
2022-08-19T00:24:03.198Z,21.20
2022-08-19T00:24:51.021Z,21.26
2022-08-19T00:25:37.882Z,21.26
2022-08-19T00:26:25.810Z,21.26
2022-08-19T00:27:26.287Z,21.26
2022-08-19T00:28:13.540Z,21.23
2022-08-19T00:29:01.813Z,21.25
2022-08-19T00:29:52.234Z,21.20
2022-08-19T00:30:39.680Z,21.21
2022-08-19T00:31:26.581Z,21.09
2022-08-19T00:32:13.373Z,21.04
2022-08-19T00:33:01.246Z,21.03
2022-08-19T00:33:48.999Z,20.95
2022-08-19T00:34:36.520Z,20.87
2022-08-19T00:35:23.360Z,20.88
2022-08-19T00:36:11.038Z,20.89
2022-08-19T00:36:58.867Z,20.83
2022-08-19T00:37:45.900Z,20.75
2022-08-19T00:38:37.776Z,20.75
2022-08-19T00:39:25.233Z,20.68
2022-08-19T00:40:13.521Z,20.70
2022-08-19T00:41:00.625Z,20.71
2022-08-19T00:41:49.979Z,20.72
2022-08-19T00:42:36.867Z,20.69
2022-08-19T00:43:26.851Z,20.64
2022-08-19T00:44:17.048Z,20.64
2022-08-19T00:45:10.877Z,20.55
2022-08-19T00:45:57.903Z,20.63
2022-08-19T00:46:55.340Z,20.61
2022-08-19T00:47:46.178Z,20.60
2022-08-19T00:48:34.636Z,20.63
2022-08-19T00:49:55.284Z,20.65
2022-08-19T00:50:51.508Z,20.67
2022-08-19T00:51:39.199Z,20.65
2022-08-19T00:52:32.980Z,20.55
2022-08-19T00:53:22.145Z,20.49
2022-08-19T00:54:10.258Z,20.50
2022-08-19T00:54:58.966Z,20.49
2022-08-19T00:55:51.565Z,20.42
2022-08-19T00:56:40.050Z,20.39
2022-08-19T00:57:35.277Z,20.40
2022-08-19T00:58:24.464Z,20.40
2022-08-19T00:59:11.703Z,20.35
2022-08-19T01:00:02.279Z,20.30
2022-08-19T01:00:49.867Z,20.30
2022-08-19T01:01:42.174Z,20.31
2022-08-19T01:02:29.179Z,20.31
2022-08-19T01:03:19.600Z,20.31
2022-08-19T01:04:06.421Z,20.32
2022-08-19T01:04:53.204Z,20.34
2022-08-19T01:05:42.725Z,20.32
2022-08-19T01:06:29.558Z,20.29
2022-08-19T01:07:19.593Z,20.27
2022-08-19T01:08:07.560Z,20.24
2022-08-19T01:08:56.245Z,20.22
2022-08-19T01:09:43.023Z,20.18
2022-08-19T01:10:38.994Z,20.14
2022-08-19T01:11:26.477Z,20.08
2022-08-19T01:12:13.205Z,20.10
2022-08-19T01:13:01.015Z,20.08
2022-08-19T01:13:49.425Z,20.08
2022-08-19T01:14:39.027Z,20.08
2022-08-19T01:15:30.514Z,20.09
2022-08-19T01:16:18.959Z,20.10
2022-08-19T01:17:06.325Z,20.08
2022-08-19T01:17:53.322Z,20.09
2022-08-19T01:18:42.967Z,20.08
2022-08-19T01:19:44.370Z,20.11
2022-08-19T01:20:31.507Z,20.10
2022-08-19T01:21:43.714Z,20.11
2022-08-19T01:22:41.156Z,20.07
2022-08-19T01:23:43.717Z,20.07
2022-08-19T01:24:31.867Z,20.03
2022-08-19T01:25:21.258Z,20.04
2022-08-19T01:26:08.035Z,20.01
2022-08-19T01:26:55.925Z,20.01
2022-08-19T01:27:45.919Z,20.03
2022-08-19T01:28:33.842Z,19.95
2022-08-19T01:29:21.357Z,19.91
2022-08-19T01:30:09.329Z,19.85
2022-08-19T01:30:56.286Z,19.80
2022-08-19T01:31:43.469Z,19.75
2022-08-19T01:32:34.022Z,19.73
2022-08-19T01:33:21.929Z,19.77
2022-08-19T01:34:08.966Z,19.77
2022-08-19T01:34:55.765Z,19.79
2022-08-19T01:35:43.445Z,19.78
2022-08-19T01:36:37.321Z,19.82
2022-08-19T01:37:27.238Z,19.84
2022-08-19T01:38:25.000Z,19.82
2022-08-19T01:39:17.402Z,19.81
2022-08-19T01:40:09.229Z,19.79
2022-08-19T01:40:56.251Z,19.79
2022-08-19T01:41:42.994Z,19.72
2022-08-19T01:42:30.898Z,19.79
2022-08-19T01:43:18.216Z,19.78
2022-08-19T01:44:17.591Z,19.73
2022-08-19T01:45:08.658Z,19.72
2022-08-19T01:45:55.419Z,19.69
2022-08-19T01:46:43.183Z,19.63
2022-08-19T01:47:30.250Z,19.59
2022-08-19T01:48:17.040Z,19.62
2022-08-19T01:49:05.399Z,19.61
2022-08-19T01:49:52.202Z,19.62
2022-08-19T01:50:39.278Z,19.55
2022-08-19T01:51:26.119Z,19.58
2022-08-19T01:52:13.023Z,19.61
2022-08-19T01:53:06.235Z,19.57
2022-08-19T01:53:54.202Z,19.61
2022-08-19T01:54:40.999Z,19.61
2022-08-19T01:55:27.787Z,19.52
2022-08-19T01:56:14.598Z,19.52
2022-08-19T01:57:06.958Z,19.52
2022-08-19T01:57:57.285Z,19.47
2022-08-19T01:58:51.933Z,19.49
2022-08-19T01:59:38.990Z,19.47
2022-08-19T02:00:27.702Z,19.49
2022-08-19T02:01:15.063Z,19.54
2022-08-19T02:02:02.278Z,19.52
2022-08-19T02:02:49.293Z,19.50
2022-08-19T02:03:36.159Z,19.43
2022-08-19T02:04:24.461Z,19.38
2022-08-19T02:05:12.770Z,19.37
2022-08-19T02:06:01.402Z,19.36
2022-08-19T02:06:49.233Z,19.35
2022-08-19T02:07:36.944Z,19.36
2022-08-19T02:08:28.485Z,19.35
2022-08-19T02:09:15.626Z,19.32
2022-08-19T02:10:08.959Z,19.34
2022-08-19T02:11:00.198Z,19.32
2022-08-19T02:11:46.944Z,19.35
2022-08-19T02:12:33.728Z,19.36
2022-08-19T02:13:26.457Z,19.34
2022-08-19T02:14:14.283Z,19.34
2022-08-19T02:15:02.902Z,19.35
2022-08-19T02:15:49.638Z,19.32
2022-08-19T02:16:37.954Z,19.29
2022-08-19T02:17:24.744Z,19.30
2022-08-19T02:18:11.814Z,19.30
2022-08-19T02:19:01.686Z,19.28
2022-08-19T02:19:48.981Z,19.30
2022-08-19T02:20:36.860Z,19.28
2022-08-19T02:21:25.225Z,19.28
2022-08-19T02:22:12.054Z,19.28
2022-08-19T02:22:58.864Z,19.25
2022-08-19T02:23:45.949Z,19.24
2022-08-19T02:24:32.947Z,19.24
2022-08-19T02:25:19.717Z,19.23
2022-08-19T02:26:07.488Z,19.26
2022-08-19T02:26:54.782Z,19.21
2022-08-19T02:27:42.430Z,19.21
2022-08-19T02:28:29.235Z,19.18
2022-08-19T02:29:16.005Z,19.20
2022-08-19T02:30:03.257Z,19.18
2022-08-19T02:30:50.041Z,19.19
2022-08-19T02:31:37.024Z,19.21
2022-08-19T02:32:23.883Z,19.20
2022-08-19T02:33:10.810Z,19.13
2022-08-19T02:33:57.845Z,19.08
2022-08-19T02:34:44.603Z,19.09
2022-08-19T02:35:31.928Z,19.06
2022-08-19T02:36:21.231Z,19.03
2022-08-19T02:37:28.188Z,19.07
2022-08-19T02:38:27.414Z,19.15
2022-08-19T02:39:14.660Z,19.16
2022-08-19T02:40:02.102Z,19.08
2022-08-19T02:40:52.932Z,19.06
2022-08-19T02:41:39.685Z,19.12
2022-08-19T02:42:26.604Z,19.11
2022-08-19T02:43:13.346Z,19.10
2022-08-19T02:44:26.477Z,19.12
2022-08-19T02:45:09.312Z,19.15
2022-08-19T02:45:56.183Z,19.20
2022-08-19T02:46:44.479Z,19.17
2022-08-19T02:47:31.228Z,19.16
2022-08-19T02:48:21.651Z,19.10
2022-08-19T02:49:09.256Z,19.06
2022-08-19T02:49:56.005Z,19.00
2022-08-19T02:50:51.777Z,19.06
2022-08-19T02:51:44.325Z,19.05
2022-08-19T02:52:31.980Z,18.97
2022-08-19T02:53:18.724Z,18.97
2022-08-19T02:54:07.713Z,18.93
2022-08-19T02:54:54.452Z,18.94
2022-08-19T02:55:46.847Z,18.88
2022-08-19T02:56:36.399Z,18.91
2022-08-19T02:57:23.332Z,18.92
2022-08-19T02:58:10.107Z,18.92
2022-08-19T02:58:56.947Z,18.89
2022-08-19T02:59:43.739Z,18.88
2022-08-19T03:00:30.497Z,18.87
2022-08-19T03:01:30.979Z,18.89
2022-08-19T03:02:17.731Z,18.90
2022-08-19T03:03:04.522Z,18.91
2022-08-19T03:03:52.131Z,18.91
2022-08-19T03:04:39.396Z,18.91
2022-08-19T03:05:46.837Z,18.96
2022-08-19T03:06:33.418Z,18.96
2022-08-19T03:07:20.220Z,18.88
2022-08-19T03:08:07.506Z,18.88
2022-08-19T03:08:54.451Z,18.89
2022-08-19T03:09:41.207Z,18.88
2022-08-19T03:10:28.116Z,18.90
2022-08-19T03:11:17.491Z,18.92
2022-08-19T03:12:05.804Z,19.00
2022-08-19T03:12:52.682Z,18.89
2022-08-19T03:13:39.454Z,18.87
2022-08-19T03:14:26.185Z,18.82
2022-08-19T03:15:12.988Z,18.79
2022-08-19T03:15:59.791Z,18.79
2022-08-19T03:16:50.427Z,18.75
2022-08-19T03:17:37.600Z,18.76
2022-08-19T03:18:24.669Z,18.81
2022-08-19T03:19:11.419Z,18.83
2022-08-19T03:19:58.352Z,18.82
2022-08-19T03:20:48.296Z,18.79
2022-08-19T03:21:36.120Z,18.82
2022-08-19T03:22:22.966Z,18.81
2022-08-19T03:23:09.942Z,18.73
2022-08-19T03:24:01.476Z,18.70
2022-08-19T03:24:48.694Z,18.73
2022-08-19T03:25:42.247Z,18.70
2022-08-19T03:26:29.551Z,18.70
2022-08-19T03:27:16.346Z,18.73
2022-08-19T03:28:03.210Z,18.70
2022-08-19T03:28:58.210Z,18.75
2022-08-19T03:29:46.005Z,18.72
2022-08-19T03:30:33.276Z,18.72
2022-08-19T03:31:44.856Z,18.77
2022-08-19T03:32:32.931Z,18.76
2022-08-19T03:33:26.458Z,18.82
2022-08-19T03:34:20.118Z,18.82
2022-08-19T03:35:07.156Z,18.83
2022-08-19T03:36:16.573Z,18.77
2022-08-19T03:37:09.254Z,18.78
2022-08-19T03:37:57.533Z,18.81
2022-08-19T03:38:47.478Z,18.78
2022-08-19T03:39:34.996Z,18.76
2022-08-19T03:40:21.807Z,18.77
2022-08-19T03:41:11.635Z,18.79
2022-08-19T03:42:29.298Z,18.79
2022-08-19T03:43:07.155Z,18.79
2022-08-19T03:43:55.125Z,18.74
2022-08-19T03:44:43.408Z,18.74
2022-08-19T03:45:30.406Z,18.74
2022-08-19T03:46:21.445Z,18.70
2022-08-19T03:47:08.191Z,18.67
2022-08-19T03:47:55.039Z,18.57
2022-08-19T03:48:43.306Z,18.59
2022-08-19T03:49:32.137Z,18.60
2022-08-19T03:50:20.857Z,18.58
2022-08-19T03:51:08.623Z,18.64
2022-08-19T03:51:57.713Z,18.63
2022-08-19T03:52:49.669Z,18.65
2022-08-19T03:53:36.944Z,18.65
2022-08-19T03:54:25.308Z,18.68
2022-08-19T03:55:12.520Z,18.61
2022-08-19T03:56:01.163Z,18.56
2022-08-19T03:56:49.427Z,18.57
2022-08-19T03:57:36.188Z,18.59
2022-08-19T03:58:23.609Z,18.59
2022-08-19T03:59:13.017Z,18.61
2022-08-19T04:00:13.805Z,18.60
2022-08-19T04:01:00.853Z,18.63
2022-08-19T04:01:47.927Z,18.68
2022-08-19T04:02:34.673Z,18.62
2022-08-19T04:03:21.462Z,18.60
2022-08-19T04:04:08.224Z,18.64
2022-08-19T04:04:56.586Z,18.64
2022-08-19T04:05:43.332Z,18.69
2022-08-19T04:06:33.225Z,18.70
2022-08-19T04:07:22.487Z,18.70
2022-08-19T04:08:13.664Z,18.73
2022-08-19T04:09:02.450Z,18.84
2022-08-19T04:09:50.032Z,18.93
2022-08-19T04:10:37.924Z,18.90
2022-08-19T04:11:42.760Z,18.94
2022-08-19T04:12:30.085Z,18.95
2022-08-19T04:13:18.405Z,18.91
2022-08-19T04:14:05.508Z,18.94
2022-08-19T04:14:52.270Z,18.95
2022-08-19T04:15:43.737Z,19.01
2022-08-19T04:16:34.945Z,19.08
2022-08-19T04:17:23.528Z,19.08
2022-08-19T04:18:11.442Z,19.13
2022-08-19T04:19:01.482Z,19.16
2022-08-19T04:19:48.162Z,19.23
2022-08-19T04:20:47.097Z,19.20
2022-08-19T04:21:34.280Z,19.20
2022-08-19T04:22:21.025Z,19.25
2022-08-19T04:23:07.845Z,19.32
2022-08-19T04:23:55.833Z,19.33
2022-08-19T04:24:42.638Z,19.38
2022-08-19T04:25:29.363Z,19.40
2022-08-19T04:26:21.142Z,19.47
2022-08-19T04:27:08.028Z,19.58
2022-08-19T04:27:54.767Z,19.68
2022-08-19T04:28:41.528Z,19.74
2022-08-19T04:29:28.493Z,19.75
2022-08-19T04:30:15.764Z,19.81
2022-08-19T04:31:02.571Z,19.83
2022-08-19T04:31:49.999Z,19.90
2022-08-19T04:32:36.776Z,19.94
2022-08-19T04:33:28.500Z,20.02
2022-08-19T04:34:17.303Z,20.10
2022-08-19T04:35:16.777Z,20.13
2022-08-19T04:36:06.411Z,20.21
2022-08-19T04:36:55.077Z,20.35
2022-08-19T04:37:41.973Z,20.43
2022-08-19T04:38:29.168Z,20.53
2022-08-19T04:39:18.029Z,20.57
2022-08-19T04:40:25.768Z,20.62
2022-08-19T04:41:31.213Z,20.64
2022-08-19T04:42:37.870Z,20.78
2022-08-19T04:43:24.658Z,20.90
2022-08-19T04:44:12.536Z,21.04
2022-08-19T04:44:59.737Z,21.10
2022-08-19T04:45:47.365Z,21.14
2022-08-19T04:46:39.803Z,21.19
2022-08-19T04:47:48.105Z,21.17
2022-08-19T04:48:35.324Z,21.25
2022-08-19T04:49:23.572Z,21.36
2022-08-19T04:50:12.965Z,21.46
2022-08-19T04:51:00.121Z,21.54
2022-08-19T04:51:48.829Z,21.64
2022-08-19T04:52:35.586Z,21.69
2022-08-19T04:53:22.687Z,21.80
2022-08-19T04:54:09.998Z,21.87
2022-08-19T04:54:56.745Z,21.96
2022-08-19T04:55:44.148Z,22.02
2022-08-19T04:56:30.966Z,22.09
2022-08-19T04:57:17.707Z,22.03
2022-08-19T04:58:04.936Z,22.06
2022-08-19T04:58:52.616Z,22.14
2022-08-19T04:59:40.405Z,22.13
2022-08-19T05:00:27.125Z,22.17
2022-08-19T05:01:25.879Z,22.30
2022-08-19T05:02:12.753Z,22.38
2022-08-19T05:02:59.501Z,22.49
2022-08-19T05:03:49.470Z,22.56
2022-08-19T05:04:39.682Z,22.72
2022-08-19T05:05:26.445Z,22.83
2022-08-19T05:06:15.312Z,22.96
2022-08-19T05:07:02.496Z,23.03
2022-08-19T05:07:49.366Z,23.08
2022-08-19T05:08:37.467Z,23.18
2022-08-19T05:09:24.296Z,23.33
2022-08-19T05:10:11.387Z,23.43
2022-08-19T05:10:58.506Z,23.55
2022-08-19T05:11:45.663Z,23.67
2022-08-19T05:12:32.546Z,23.77
2022-08-19T05:13:20.404Z,23.90
2022-08-19T05:14:08.744Z,24.02
2022-08-19T05:14:58.018Z,24.13
2022-08-19T05:15:45.819Z,24.30
2022-08-19T05:16:32.687Z,24.56
2022-08-19T05:17:28.806Z,24.79
2022-08-19T05:18:35.952Z,25.00
2022-08-19T05:19:41.468Z,25.27
2022-08-19T05:20:47.066Z,25.50
2022-08-19T05:21:53.079Z,25.78
2022-08-19T05:22:40.183Z,26.04
2022-08-19T05:23:27.319Z,26.20
2022-08-19T05:24:15.128Z,26.36
2022-08-19T05:25:13.530Z,26.53
2022-08-19T05:26:00.753Z,26.68
2022-08-19T05:26:49.365Z,26.79
2022-08-19T05:27:36.221Z,26.89
2022-08-19T05:28:23.015Z,27.04
2022-08-19T05:29:11.237Z,27.14
2022-08-19T05:29:57.966Z,27.30
2022-08-19T05:30:47.435Z,27.43
2022-08-19T05:31:36.468Z,27.54
2022-08-19T05:32:29.095Z,27.72
2022-08-19T05:33:15.941Z,27.85
2022-08-19T05:34:03.099Z,27.99
2022-08-19T05:34:54.438Z,28.12
2022-08-19T05:35:42.148Z,28.26
2022-08-19T05:36:30.454Z,28.36
2022-08-19T05:37:18.206Z,28.48
2022-08-19T05:38:05.656Z,28.52
2022-08-19T05:38:54.295Z,28.61
2022-08-19T05:39:41.596Z,28.69
2022-08-19T05:40:28.510Z,28.87
2022-08-19T05:41:16.354Z,28.88
2022-08-19T05:42:07.946Z,28.93
2022-08-19T05:42:54.868Z,28.97
2022-08-19T05:43:42.442Z,28.94
2022-08-19T05:44:32.589Z,28.90
2022-08-19T05:45:19.333Z,29.04
2022-08-19T05:46:07.757Z,29.12
2022-08-19T05:46:54.915Z,29.20
2022-08-19T05:47:42.282Z,29.16
2022-08-19T05:48:29.439Z,29.14
2022-08-19T05:49:17.066Z,28.94
2022-08-19T05:50:05.353Z,29.01
2022-08-19T05:50:52.119Z,29.21
2022-08-19T05:51:39.052Z,29.33
2022-08-19T05:52:26.431Z,29.23
2022-08-19T05:53:14.214Z,29.35
2022-08-19T05:54:02.114Z,29.45
2022-08-19T05:54:51.517Z,29.57
2022-08-19T05:55:39.724Z,29.66
2022-08-19T05:56:26.538Z,29.67
2022-08-19T05:57:14.598Z,29.63
2022-08-19T05:58:03.059Z,29.65
2022-08-19T05:58:50.128Z,29.77
2022-08-19T05:59:37.204Z,29.81
2022-08-19T06:00:26.266Z,29.89
2022-08-19T06:01:15.788Z,29.91
2022-08-19T06:02:03.452Z,29.99
2022-08-19T06:02:50.530Z,29.87
2022-08-19T06:03:38.594Z,29.98
2022-08-19T06:04:25.424Z,30.03
2022-08-19T06:05:12.247Z,30.12
2022-08-19T06:06:00.566Z,30.18
2022-08-19T06:06:48.909Z,30.15
2022-08-19T06:07:37.471Z,30.25
2022-08-19T06:08:34.220Z,30.25
2022-08-19T06:09:23.474Z,30.29
2022-08-19T06:10:12.172Z,30.32
2022-08-19T06:10:58.898Z,30.43
2022-08-19T06:11:52.936Z,30.37
2022-08-19T06:12:42.261Z,30.58
2022-08-19T06:13:29.157Z,30.53
2022-08-19T06:14:27.682Z,30.50
2022-08-19T06:15:15.881Z,30.47
2022-08-19T06:16:02.815Z,30.53
2022-08-19T06:16:50.100Z,30.34
2022-08-19T06:17:37.043Z,30.45
2022-08-19T06:18:24.374Z,30.27
2022-08-19T06:19:16.867Z,30.30
2022-08-19T06:20:09.924Z,30.41
2022-08-19T06:20:56.781Z,30.62
2022-08-19T06:21:46.351Z,30.68
2022-08-19T06:22:33.119Z,30.76
2022-08-19T06:23:21.259Z,30.88
2022-08-19T06:24:12.937Z,30.74
2022-08-19T06:24:59.709Z,30.83
2022-08-19T06:25:46.405Z,30.76
2022-08-19T06:26:35.828Z,30.74
2022-08-19T06:27:23.385Z,30.82
2022-08-19T06:28:14.902Z,30.78
2022-08-19T06:29:02.523Z,30.79
2022-08-19T06:29:49.574Z,30.74
2022-08-19T06:30:37.370Z,30.73
2022-08-19T06:31:27.998Z,30.68
2022-08-19T06:32:17.604Z,30.69
2022-08-19T06:33:04.343Z,30.66
2022-08-19T06:33:51.455Z,30.68
2022-08-19T06:34:39.472Z,30.76
2022-08-19T06:35:26.565Z,30.68
2022-08-19T06:36:25.605Z,30.79
2022-08-19T06:37:13.206Z,30.68
2022-08-19T06:38:00.462Z,30.73
2022-08-19T06:38:47.298Z,30.70
2022-08-19T06:39:37.699Z,30.59
2022-08-19T06:40:24.608Z,30.66
2022-08-19T06:41:11.286Z,30.70
2022-08-19T06:42:01.227Z,30.80
2022-08-19T06:42:54.991Z,30.78
2022-08-19T06:43:43.705Z,30.63
2022-08-19T06:44:35.445Z,30.71
2022-08-19T06:45:34.730Z,30.72
2022-08-19T06:46:23.504Z,30.61
2022-08-19T06:47:14.690Z,30.68
2022-08-19T06:48:09.966Z,30.79
2022-08-19T06:48:59.258Z,30.89
2022-08-19T06:49:46.118Z,31.02
2022-08-19T06:50:32.849Z,31.03
2022-08-19T06:51:19.974Z,31.07
2022-08-19T06:52:07.141Z,30.97
2022-08-19T06:52:55.474Z,31.01
2022-08-19T06:53:46.992Z,31.10
2022-08-19T06:54:37.631Z,31.23
2022-08-19T06:55:41.407Z,31.39
2022-08-19T06:56:32.838Z,31.56
2022-08-19T06:57:19.549Z,31.54
2022-08-19T06:58:06.375Z,31.55
2022-08-19T06:58:53.946Z,31.65
2022-08-19T06:59:40.855Z,31.68
2022-08-19T07:00:27.812Z,31.74
2022-08-19T07:01:14.609Z,31.74
2022-08-19T07:02:06.638Z,31.85
2022-08-19T07:02:59.061Z,31.89
2022-08-19T07:03:47.888Z,31.95
2022-08-19T07:04:37.016Z,32.01
2022-08-19T07:05:23.765Z,32.12
2022-08-19T07:06:32.506Z,32.11
2022-08-19T07:07:23.336Z,32.13
2022-08-19T07:08:10.473Z,32.06
2022-08-19T07:08:59.157Z,32.10
2022-08-19T07:09:52.270Z,32.08
2022-08-19T07:10:47.483Z,31.96
2022-08-19T07:11:34.739Z,32.00
2022-08-19T07:12:21.483Z,31.83
2022-08-19T07:13:09.882Z,31.63
2022-08-19T07:13:56.694Z,31.58
2022-08-19T07:14:43.877Z,31.70
2022-08-19T07:15:30.880Z,31.57
2022-08-19T07:16:21.665Z,31.44
2022-08-19T07:17:16.221Z,31.36
2022-08-19T07:18:04.487Z,31.00
2022-08-19T07:18:52.145Z,30.70
2022-08-19T07:19:39.924Z,30.52
2022-08-19T07:20:28.505Z,30.25
2022-08-19T07:21:30.087Z,30.27
2022-08-19T07:22:17.364Z,30.37
2022-08-19T07:23:07.148Z,30.18
2022-08-19T07:23:55.127Z,30.01
2022-08-19T07:24:43.003Z,29.76
2022-08-19T07:25:39.172Z,29.83
2022-08-19T07:26:31.479Z,29.95
2022-08-19T07:27:24.543Z,30.02
2022-08-19T07:28:18.037Z,30.15
2022-08-19T07:29:11.968Z,30.20
2022-08-19T07:30:00.511Z,30.28
2022-08-19T07:30:47.248Z,30.02
2022-08-19T07:31:37.630Z,29.92
2022-08-19T07:32:26.967Z,30.08
2022-08-19T07:33:13.722Z,30.24
2022-08-19T07:34:01.441Z,30.41
2022-08-19T07:34:48.300Z,30.55
2022-08-19T07:35:35.366Z,30.62
2022-08-19T07:36:26.033Z,30.72
2022-08-19T07:37:12.923Z,30.87
2022-08-19T07:38:03.566Z,30.97
2022-08-19T07:38:52.609Z,31.04
2022-08-19T07:39:40.903Z,31.00
2022-08-19T07:40:27.654Z,31.11
2022-08-19T07:41:17.811Z,31.16
2022-08-19T07:42:08.751Z,31.06
2022-08-19T07:42:55.477Z,31.01
2022-08-19T07:43:44.548Z,30.96
2022-08-19T07:44:31.543Z,30.83
2022-08-19T07:45:18.352Z,30.98
2022-08-19T07:46:05.487Z,31.01
2022-08-19T07:46:56.839Z,30.78
2022-08-19T07:47:49.137Z,30.68
2022-08-19T07:48:38.451Z,30.58
2022-08-19T07:49:25.549Z,30.65
2022-08-19T07:50:12.763Z,30.69
2022-08-19T07:51:02.992Z,30.63
2022-08-19T07:51:58.287Z,30.56
2022-08-19T07:53:01.636Z,30.50
2022-08-19T07:53:51.154Z,30.61
2022-08-19T07:54:40.273Z,30.46
2022-08-19T07:55:41.626Z,30.53
2022-08-19T07:56:30.413Z,30.32
2022-08-19T07:57:18.786Z,30.30
2022-08-19T07:58:06.129Z,30.33
2022-08-19T07:58:53.709Z,30.39
2022-08-19T07:59:41.221Z,30.46
2022-08-19T08:00:28.030Z,30.49
2022-08-19T08:01:19.608Z,30.54
2022-08-19T08:02:06.574Z,30.66
2022-08-19T08:02:55.385Z,30.70
2022-08-19T08:04:01.977Z,30.64
2022-08-19T08:05:07.237Z,30.60
2022-08-19T08:06:12.259Z,30.61
2022-08-19T08:07:17.765Z,30.72
2022-08-19T08:08:23.122Z,30.86
2022-08-19T08:10:20.970Z,30.97
2022-08-19T08:11:08.764Z,31.03
2022-08-19T08:12:01.948Z,31.06
2022-08-19T08:13:09.170Z,30.85
2022-08-19T08:14:29.348Z,30.96
2022-08-19T08:15:19.602Z,30.86
2022-08-19T08:16:10.261Z,30.66
2022-08-19T08:17:00.944Z,30.82
2022-08-19T08:17:49.198Z,30.81
2022-08-19T08:18:43.239Z,30.77
2022-08-19T08:19:30.289Z,30.86
2022-08-19T08:20:18.703Z,30.99
2022-08-19T08:21:20.563Z,31.05
2022-08-19T08:22:07.535Z,31.25
2022-08-19T08:23:13.501Z,31.39
2022-08-19T08:24:52.040Z,31.59
2022-08-19T08:25:39.396Z,31.66
2022-08-19T08:26:27.394Z,31.68
2022-08-19T08:27:17.038Z,31.64
2022-08-19T08:28:06.002Z,31.71
2022-08-19T08:28:54.528Z,31.83
2022-08-19T08:29:42.189Z,31.78
2022-08-19T08:30:32.553Z,31.86
2022-08-19T08:31:20.305Z,31.90
2022-08-19T08:32:14.758Z,31.82
2022-08-19T08:33:02.641Z,31.83
2022-08-19T08:33:49.558Z,31.80
2022-08-19T08:34:38.122Z,31.79
2022-08-19T08:35:25.714Z,31.64
2022-08-19T08:36:14.901Z,31.82
2022-08-19T08:37:01.776Z,31.80
2022-08-19T08:37:51.354Z,31.86
2022-08-19T08:38:41.030Z,31.84
2022-08-19T08:39:29.828Z,31.77
2022-08-19T08:40:49.932Z,31.92
2022-08-19T08:41:51.143Z,32.02
2022-08-19T08:42:42.123Z,32.27
2022-08-19T08:43:38.067Z,32.43
2022-08-19T08:44:33.970Z,32.42
2022-08-19T08:45:24.352Z,32.43
2022-08-19T08:46:30.982Z,32.42
2022-08-19T08:47:20.455Z,32.35
2022-08-19T08:48:24.403Z,32.59
2022-08-19T08:49:35.426Z,32.62
2022-08-19T08:50:31.571Z,32.55
2022-08-19T08:51:30.892Z,32.73
2022-08-19T08:52:26.005Z,32.69
2022-08-19T08:53:29.769Z,32.89
2022-08-19T08:54:21.761Z,32.92
2022-08-19T08:55:11.629Z,32.87
2022-08-19T08:55:59.342Z,32.86
2022-08-19T08:56:47.182Z,32.72
2022-08-19T08:58:00.406Z,32.67
2022-08-19T08:58:54.770Z,32.68
2022-08-19T08:59:43.227Z,32.79
2022-08-19T09:00:40.059Z,32.86
2022-08-19T09:01:30.262Z,33.09
2022-08-19T09:02:18.640Z,33.29
2022-08-19T09:03:17.925Z,33.39
2022-08-19T09:04:07.232Z,33.36
2022-08-19T09:04:55.687Z,33.43
2022-08-19T09:06:15.862Z,33.61
2022-08-19T09:07:35.954Z,33.60
2022-08-19T09:08:37.736Z,33.75
2022-08-19T09:09:46.889Z,33.85
2022-08-19T09:10:44.337Z,33.78
2022-08-19T09:11:49.791Z,33.60
2022-08-19T09:13:09.269Z,33.81
2022-08-19T09:14:50.243Z,34.01
2022-08-19T09:15:45.579Z,33.94
2022-08-19T09:16:35.446Z,34.09
2022-08-19T09:17:32.221Z,34.22
2022-08-19T09:18:19.660Z,34.26
2022-08-19T09:19:08.516Z,34.19
2022-08-19T09:20:10.054Z,34.22
2022-08-19T09:20:57.973Z,34.04
2022-08-19T09:21:44.989Z,33.84
2022-08-19T09:22:32.320Z,33.95
2022-08-19T09:23:26.637Z,34.14
2022-08-19T09:24:13.963Z,34.33
2022-08-19T09:25:01.502Z,34.44
2022-08-19T09:25:48.450Z,34.40
2022-08-19T09:26:47.651Z,34.57
2022-08-19T09:27:43.000Z,34.61
2022-08-19T09:28:30.491Z,34.65
2022-08-19T09:29:19.555Z,34.65
2022-08-19T09:30:12.837Z,34.63
2022-08-19T09:30:59.506Z,34.40
2022-08-19T09:31:46.448Z,34.31
2022-08-19T09:32:34.521Z,34.38
2022-08-19T09:33:21.389Z,34.32
2022-08-19T09:34:21.205Z,34.31
2022-08-19T09:35:09.167Z,34.40
2022-08-19T09:36:08.825Z,34.53
2022-08-19T09:36:56.690Z,34.61
2022-08-19T09:37:44.566Z,34.53
2022-08-19T09:38:31.713Z,34.56
2022-08-19T09:39:18.519Z,34.42
2022-08-19T09:40:06.334Z,34.42
2022-08-19T09:40:53.310Z,34.43
2022-08-19T09:41:40.245Z,34.46
2022-08-19T09:42:35.469Z,34.10
2022-08-19T09:43:31.112Z,33.99
2022-08-19T09:44:30.726Z,34.25
2022-08-19T09:45:22.087Z,34.42
2022-08-19T09:46:10.490Z,34.62
2022-08-19T09:46:57.392Z,34.81
2022-08-19T09:47:47.323Z,34.77
2022-08-19T09:48:34.864Z,34.84
2022-08-19T09:49:25.366Z,34.88
2022-08-19T09:50:16.407Z,34.83
2022-08-19T09:51:12.147Z,34.73
2022-08-19T09:51:59.061Z,34.55
2022-08-19T09:52:55.264Z,34.41
2022-08-19T09:53:46.333Z,34.47
2022-08-19T09:54:44.150Z,34.70
2022-08-19T09:55:34.026Z,34.92
2022-08-19T09:56:22.274Z,34.94
2022-08-19T09:57:16.120Z,34.93
2022-08-19T09:58:03.689Z,34.96
2022-08-19T09:58:51.082Z,35.05
2022-08-19T09:59:40.440Z,35.03
2022-08-19T10:00:32.928Z,34.71
2022-08-19T10:01:24.087Z,34.64
2022-08-19T10:02:11.932Z,34.76
2022-08-19T10:02:59.704Z,34.83
2022-08-19T10:03:51.926Z,34.95
2022-08-19T10:04:57.526Z,35.02
2022-08-19T10:05:50.591Z,34.88
2022-08-19T10:06:45.673Z,34.63
2022-08-19T10:07:36.503Z,34.80
2022-08-19T10:08:29.709Z,34.76
2022-08-19T10:09:18.361Z,34.86
2022-08-19T10:10:21.102Z,34.73
2022-08-19T10:11:28.710Z,34.66
2022-08-19T10:12:15.264Z,34.42
2022-08-19T10:13:07.855Z,34.61
2022-08-19T10:13:54.902Z,34.77
2022-08-19T10:14:41.798Z,34.84
2022-08-19T10:15:29.533Z,34.79
2022-08-19T10:16:22.603Z,34.83
2022-08-19T10:17:20.000Z,35.01
2022-08-19T10:18:09.015Z,34.92
2022-08-19T10:18:58.717Z,34.96
2022-08-19T10:19:55.126Z,34.94
2022-08-19T10:20:43.454Z,35.22
2022-08-19T10:21:32.462Z,35.42
2022-08-19T10:22:19.873Z,35.35
2022-08-19T10:23:06.838Z,35.34
2022-08-19T10:23:58.798Z,35.27
2022-08-19T10:24:50.653Z,35.41
2022-08-19T10:25:38.694Z,35.52
2022-08-19T10:26:38.142Z,35.30
2022-08-19T10:27:26.249Z,34.97
2022-08-19T10:28:13.470Z,34.96
2022-08-19T10:29:01.235Z,35.00
2022-08-19T10:29:49.289Z,34.93
2022-08-19T10:30:40.535Z,34.86
2022-08-19T10:32:02.655Z,34.62
2022-08-19T10:32:37.400Z,34.53
2022-08-19T10:33:38.732Z,34.52
2022-08-19T10:34:33.016Z,34.50
2022-08-19T10:35:21.891Z,34.41
2022-08-19T10:36:18.904Z,34.29
2022-08-19T10:37:08.445Z,34.29
2022-08-19T10:38:02.682Z,34.09
2022-08-19T10:38:56.633Z,33.54
2022-08-19T10:39:44.096Z,33.54
2022-08-19T10:40:31.175Z,33.48
2022-08-19T10:41:23.506Z,33.41
2022-08-19T10:42:11.852Z,33.43
2022-08-19T10:42:59.165Z,33.54
2022-08-19T10:43:46.401Z,33.42
2022-08-19T10:44:34.194Z,33.47
2022-08-19T10:45:28.304Z,33.51
2022-08-19T10:46:16.920Z,33.35
2022-08-19T10:47:05.209Z,33.46
2022-08-19T10:48:04.903Z,33.59
2022-08-19T10:48:52.344Z,33.57
2022-08-19T10:49:59.090Z,33.42
2022-08-19T10:51:04.512Z,33.44
2022-08-19T10:52:19.049Z,33.37